Terminal Aerodrome Forecast
Issued by NWS Portland, OR

Home | Current Version | Previous Version | Text Only | Print | Product List | Glossary On
Versions: 1 2 3 4 5 6 7 8 9 10 11 12 13 14
000
FTUS46 KPQR 212328
TAFSLE
TAF
KSLE 212328Z 2200/2224 18017G27KT P6SM -RA SCT019 OVC035
     FM220200 19009KT P6SM OVC050
     FM221100 18013KT P6SM -RA SCT025 OVC040
     FM221800 18015G23KT P6SM SCT030 OVC050=

USA.gov is the U.S. government's official web portal to all federal, state and local government web resources and services.